sensor_id;sensor_type;location;lat;lon;timestamp;pressure;altitude;pressure_sealevel;temperature;humidity
37792;BME280;29527;55.766;37.570;2023-11-18T00:00:27;100677.38;;;-5.58;59.14
37792;BME280;29527;55.766;37.570;2023-11-18T00:02:53;100699.13;;;-5.59;59.26
37792;BME280;29527;55.766;37.570;2023-11-18T00:05:19;100675.66;;;-5.59;59.24
37792;BME280;29527;55.766;37.570;2023-11-18T00:07:44;100690.44;;;-5.49;59.01
37792;BME280;29527;55.766;37.570;2023-11-18T00:10:10;100693.03;;;-5.54;58.92
37792;BME280;29527;55.766;37.570;2023-11-18T00:12:36;100693.06;;;-5.57;59.26
37792;BME280;29527;55.766;37.570;2023-11-18T00:15:03;100682.63;;;-5.63;59.52
37792;BME280;29527;55.766;37.570;2023-11-18T00:17:31;100704.34;;;-5.58;59.41
37792;BME280;29527;55.766;37.570;2023-11-18T00:19:57;100688.69;;;-5.63;59.92
37792;BME280;29527;55.766;37.570;2023-11-18T00:22:23;100703.47;;;-5.40;59.64
37792;BME280;29527;55.766;37.570;2023-11-18T00:24:49;100688.69;;;-5.38;58.74
37792;BME280;29527;55.766;37.570;2023-11-18T00:27:15;100694.75;;;-5.33;58.79
37792;BME280;29527;55.766;37.570;2023-11-18T00:29:41;100692.16;;;-5.43;59.24
37792;BME280;29527;55.766;37.570;2023-11-18T00:32:09;100706.09;;;-5.40;59.07
37792;BME280;29527;55.766;37.570;2023-11-18T00:34:35;100706.06;;;-5.44;59.30
37792;BME280;29527;55.766;37.570;2023-11-18T00:37:00;100715.66;;;-5.34;59.58
37792;BME280;29527;55.766;37.570;2023-11-18T00:39:26;100711.31;;;-5.38;59.55
37792;BME280;29527;55.766;37.570;2023-11-18T00:41:52;100707.84;;;-5.29;59.57
37792;BME280;29527;55.766;37.570;2023-11-18T00:44:18;100705.22;;;-5.42;59.92
37792;BME280;29527;55.766;37.570;2023-11-18T00:46:44;100712.16;;;-5.38;59.36
37792;BME280;29527;55.766;37.570;2023-11-18T00:49:09;100713.03;;;-5.39;59.87
37792;BME280;29527;55.766;37.570;2023-11-18T00:51:37;100713.94;;;-5.46;60.08
37792;BME280;29527;55.766;37.570;2023-11-18T00:54:04;100709.59;;;-5.50;60.34
37792;BME280;29527;55.766;37.570;2023-11-18T00:56:31;100723.50;;;-5.54;60.43
37792;BME280;29527;55.766;37.570;2023-11-18T00:58:57;100728.72;;;-5.54;60.32
37792;BME280;29527;55.766;37.570;2023-11-18T01:01:23;100723.50;;;-5.48;60.66
37792;BME280;29527;55.766;37.570;2023-11-18T01:03:49;100712.16;;;-5.56;60.88
37792;BME280;29527;55.766;37.570;2023-11-18T01:06:14;100725.22;;;-5.56;61.04
37792;BME280;29527;55.766;37.570;2023-11-18T01:08:44;100721.75;;;-5.60;61.27
37792;BME280;29527;55.766;37.570;2023-11-18T01:11:09;100717.38;;;-5.59;61.15
37792;BME280;29527;55.766;37.570;2023-11-18T01:13:35;100723.47;;;-5.60;61.25
37792;BME280;29527;55.766;37.570;2023-11-18T01:16:01;100714.78;;;-5.72;61.27
37792;BME280;29527;55.766;37.570;2023-11-18T01:18:27;100726.97;;;-5.62;61.36
37792;BME280;29527;55.766;37.570;2023-11-18T01:20:53;100730.44;;;-5.67;61.37
37792;BME280;29527;55.766;37.570;2023-11-18T01:23:19;100730.44;;;-5.69;62.21
37792;BME280;29527;55.766;37.570;2023-11-18T01:25:45;100733.06;;;-5.72;62.00
37792;BME280;29527;55.766;37.570;2023-11-18T01:28:10;100722.59;;;-5.80;61.92
37792;BME280;29527;55.766;37.570;2023-11-18T01:30:36;100723.47;;;-5.82;62.47
37792;BME280;29527;55.766;37.570;2023-11-18T01:33:02;100720.88;;;-5.81;62.51
37792;BME280;29527;55.766;37.570;2023-11-18T01:35:29;100742.63;;;-5.77;62.86
37792;BME280;29527;55.766;37.570;2023-11-18T01:37:56;100738.28;;;-5.78;62.49
37792;BME280;29527;55.766;37.570;2023-11-18T01:40:22;100742.59;;;-5.80;62.96
37792;BME280;29527;55.766;37.570;2023-11-18T01:42:49;100743.47;;;-5.81;62.75
37792;BME280;29527;55.766;37.570;2023-11-18T01:45:15;100733.91;;;-5.87;63.18
37792;BME280;29527;55.766;37.570;2023-11-18T01:47:42;100749.53;;;-5.85;62.74
37792;BME280;29527;55.766;37.570;2023-11-18T01:50:10;100744.31;;;-5.85;63.26
37792;BME280;29527;55.766;37.570;2023-11-18T01:52:38;100746.06;;;-5.87;62.91
37792;BME280;29527;55.766;37.570;2023-11-18T01:55:05;100739.09;;;-5.92;62.99
37792;BME280;29527;55.766;37.570;2023-11-18T01:57:34;100729.53;;;-6.00;63.48
37792;BME280;29527;55.766;37.570;2023-11-18T02:00:00;100732.16;;;-5.96;63.76
37792;BME280;29527;55.766;37.570;2023-11-18T02:02:31;100747.81;;;-5.80;63.25
37792;BME280;29527;55.766;37.570;2023-11-18T02:04:58;100744.31;;;-5.85;63.27
37792;BME280;29527;55.766;37.570;2023-11-18T02:07:27;100736.50;;;-5.92;63.45
37792;BME280;29527;55.766;37.570;2023-11-18T02:09:54;100738.22;;;-5.97;63.15
37792;BME280;29527;55.766;37.570;2023-11-18T02:12:31;100746.03;;;-5.98;63.86
37792;BME280;29527;55.766;37.570;2023-11-18T02:15:02;100740.84;;;-6.03;63.70
37792;BME280;29527;55.766;37.570;2023-11-18T02:17:37;100742.59;;;-6.02;63.80
37792;BME280;29527;55.766;37.570;2023-11-18T02:20:05;100737.34;;;-6.05;64.10
37792;BME280;29527;55.766;37.570;2023-11-18T02:22:45;100694.72;;;-6.30;64.36
37792;BME280;29527;55.766;37.570;2023-11-18T02:25:17;100725.19;;;-6.06;64.47
37792;BME280;29527;55.766;37.570;2023-11-18T02:27:45;100735.59;;;-5.92;63.76
37792;BME280;29527;55.766;37.570;2023-11-18T02:30:12;100742.56;;;-5.97;64.14
37792;BME280;29527;55.766;37.570;2023-11-18T02:32:49;100735.63;;;-6.00;64.21
37792;BME280;29527;55.766;37.570;2023-11-18T02:37:50;100744.31;;;-5.98;64.65
37792;BME280;29527;55.766;37.570;2023-11-18T02:40:21;100720.84;;;-6.13;64.63
37792;BME280;29527;55.766;37.570;2023-11-18T02:42:51;100733.00;;;-6.06;64.49
37792;BME280;29527;55.766;37.570;2023-11-18T02:45:19;100738.22;;;-6.00;64.73
37792;BME280;29527;55.766;37.570;2023-11-18T02:47:46;100741.75;;;-6.01;64.46
37792;BME280;29527;55.766;37.570;2023-11-18T02:50:13;100749.53;;;-5.92;64.25
37792;BME280;29527;55.766;37.570;2023-11-18T02:52:40;100740.00;;;-5.88;64.09
37792;BME280;29527;55.766;37.570;2023-11-18T02:55:07;100742.56;;;-5.97;64.44
37792;BME280;29527;55.766;37.570;2023-11-18T02:57:37;100746.91;;;-5.96;64.46
37792;BME280;29527;55.766;37.570;2023-11-18T03:00:04;100725.19;;;-6.12;65.03
37792;BME280;29527;55.766;37.570;2023-11-18T03:02:31;100735.63;;;-6.14;64.79
37792;BME280;29527;55.766;37.570;2023-11-18T03:04:57;100749.53;;;-6.07;64.76
37792;BME280;29527;55.766;37.570;2023-11-18T03:07:23;100744.28;;;-5.96;64.29
37792;BME280;29527;55.766;37.570;2023-11-18T03:09:49;100753.91;;;-5.80;63.93
37792;BME280;29527;55.766;37.570;2023-11-18T03:12:14;100741.69;;;-5.96;63.99
37792;BME280;29527;55.766;37.570;2023-11-18T03:14:41;100752.16;;;-6.01;64.25
37792;BME280;29527;55.766;37.570;2023-11-18T03:17:07;100746.06;;;-5.94;64.05
37792;BME280;29527;55.766;37.570;2023-11-18T03:19:35;100758.22;;;-5.83;63.48
37792;BME280;29527;55.766;37.570;2023-11-18T03:22:01;100751.31;;;-5.75;63.43
37792;BME280;29527;55.766;37.570;2023-11-18T03:24:28;100760.00;;;-5.68;62.77
37792;BME280;29527;55.766;37.570;2023-11-18T03:26:54;100766.09;;;-5.71;63.08
37792;BME280;29527;55.766;37.570;2023-11-18T03:29:20;100766.94;;;-5.84;63.41
37792;BME280;29527;55.766;37.570;2023-11-18T03:31:46;100766.06;;;-5.85;63.41
37792;BME280;29527;55.766;37.570;2023-11-18T03:34:15;100761.72;;;-5.83;63.73
37792;BME280;29527;55.766;37.570;2023-11-18T03:36:40;100758.22;;;-5.94;64.32
37792;BME280;29527;55.766;37.570;2023-11-18T03:39:06;100751.28;;;-6.01;64.32
37792;BME280;29527;55.766;37.570;2023-11-18T03:41:32;100744.28;;;-5.99;64.08
37792;BME280;29527;55.766;37.570;2023-11-18T03:43:57;100735.63;;;-6.06;64.27
37792;BME280;29527;55.766;37.570;2023-11-18T03:46:23;100746.03;;;-6.12;64.63
37792;BME280;29527;55.766;37.570;2023-11-18T03:48:49;100742.53;;;-6.19;64.79
37792;BME280;29527;55.766;37.570;2023-11-18T03:51:14;100756.44;;;-6.25;65.25
37792;BME280;29527;55.766;37.570;2023-11-18T03:53:42;100752.06;;;-6.33;65.68
37792;BME280;29527;55.766;37.570;2023-11-18T03:56:08;100759.00;;;-6.32;65.83
37792;BME280;29527;55.766;37.570;2023-11-18T03:58:34;100706.75;;;-6.68;65.93
37792;BME280;29527;55.766;37.570;2023-11-18T04:01:01;100763.34;;;-6.38;66.41
37792;BME280;29527;55.766;37.570;2023-11-18T04:03:27;100761.59;;;-6.40;66.52
37792;BME280;29527;55.766;37.570;2023-11-18T04:05:52;100767.66;;;-6.41;66.24
37792;BME280;29527;55.766;37.570;2023-11-18T04:08:18;100718.91;;;-6.67;66.89
37792;BME280;29527;55.766;37.570;2023-11-18T04:10:43;100757.19;;;-6.49;66.54
37792;BME280;29527;55.766;37.570;2023-11-18T04:13:09;100758.94;;;-6.48;66.88
37792;BME280;29527;55.766;37.570;2023-11-18T04:15:35;100751.06;;;-6.56;66.95
37792;BME280;29527;55.766;37.570;2023-11-18T04:18:01;100773.72;;;-6.49;67.21
37792;BME280;29527;55.766;37.570;2023-11-18T04:20:26;100759.81;;;-6.51;66.89
37792;BME280;29527;55.766;37.570;2023-11-18T04:22:52;100774.53;;;-6.53;67.19
37792;BME280;29527;55.766;37.570;2023-11-18T04:25:18;100749.28;;;-6.72;67.20
37792;BME280;29527;55.766;37.570;2023-11-18T04:27:44;100770.19;;;-6.58;67.28
37792;BME280;29527;55.766;37.570;2023-11-18T04:30:10;100782.34;;;-6.57;67.45
37792;BME280;29527;55.766;37.570;2023-11-18T04:32:38;100776.25;;;-6.59;67.17
37792;BME280;29527;55.766;37.570;2023-11-18T04:35:04;100726.63;;;-6.86;67.68
37792;BME280;29527;55.766;37.570;2023-11-18T04:37:35;100715.28;;;-6.93;67.44
37792;BME280;29527;55.766;37.570;2023-11-18T04:40:02;100770.16;;;-6.63;67.74
37792;BME280;29527;55.766;37.570;2023-11-18T04:42:30;100767.53;;;-6.65;67.91
37792;BME280;29527;55.766;37.570;2023-11-18T04:44:57;100776.25;;;-6.58;67.87
37792;BME280;29527;55.766;37.570;2023-11-18T04:47:23;100772.78;;;-6.58;67.93
37792;BME280;29527;55.766;37.570;2023-11-18T04:49:51;100765.81;;;-6.61;67.76
37792;BME280;29527;55.766;37.570;2023-11-18T04:52:17;100762.34;;;-6.63;67.81
37792;BME280;29527;55.766;37.570;2023-11-18T04:54:43;100771.91;;;-6.59;68.06
37792;BME280;29527;55.766;37.570;2023-11-18T04:57:09;100759.72;;;-6.65;67.99
37792;BME280;29527;55.766;37.570;2023-11-18T04:59:35;100772.78;;;-6.57;68.16
37792;BME280;29527;55.766;37.570;2023-11-18T05:02:01;100721.41;;;-6.89;67.94
37792;BME280;29527;55.766;37.570;2023-11-18T05:04:28;100727.53;;;-6.76;68.03
37792;BME280;29527;55.766;37.570;2023-11-18T05:06:53;100752.81;;;-6.55;67.94
37792;BME280;29527;55.766;37.570;2023-11-18T05:09:19;100733.72;;;-6.57;67.70
37792;BME280;29527;55.766;37.570;2023-11-18T05:11:46;100763.34;;;-6.30;67.24
37792;BME280;29527;55.766;37.570;2023-11-18T05:14:11;100769.50;;;-6.15;66.84
37792;BME280;29527;55.766;37.570;2023-11-18T05:16:37;100775.56;;;-6.23;66.97
37792;BME280;29527;55.766;37.570;2023-11-18T05:19:03;100752.91;;;-6.30;66.62
37792;BME280;29527;55.766;37.570;2023-11-18T05:21:29;100785.13;;;-6.12;67.09
37792;BME280;29527;55.766;37.570;2023-11-18T05:23:54;100777.34;;;-6.00;66.49
37792;BME280;29527;55.766;37.570;2023-11-18T05:26:20;100772.13;;;-5.91;66.03
37792;BME280;29527;55.766;37.570;2023-11-18T05:28:46;100782.56;;;-5.84;66.02
37792;BME280;29527;55.766;37.570;2023-11-18T05:31:12;100779.97;;;-5.84;66.28
37792;BME280;29527;55.766;37.570;2023-11-18T05:33:37;100784.31;;;-5.80;66.34
37792;BME280;29527;55.766;37.570;2023-11-18T05:36:03;100783.47;;;-5.68;66.16
37792;BME280;29527;55.766;37.570;2023-11-18T05:38:30;100773.94;;;-5.44;65.96
37792;BME280;29527;55.766;37.570;2023-11-18T05:41:00;100782.66;;;-5.08;64.87
37792;BME280;29527;55.766;37.570;2023-11-18T05:43:33;100775.66;;;-4.89;63.91
37792;BME280;29527;55.766;37.570;2023-11-18T05:46:03;100775.59;;;-4.52;64.66
37792;BME280;29527;55.766;37.570;2023-11-18T05:48:49;100783.38;;;-4.33;63.49
37792;BME280;29527;55.766;37.570;2023-11-18T05:51:19;100785.75;;;-3.83;62.76
37792;BME280;29527;55.766;37.570;2023-11-18T05:53:46;100780.81;;;-3.05;61.82
37792;BME280;29527;55.766;37.570;2023-11-18T05:56:13;100773.53;;;-2.00;58.84
37792;BME280;29527;55.766;37.570;2023-11-18T05:58:39;100785.63;;;-0.75;55.15
37792;BME280;29527;55.766;37.570;2023-11-18T06:01:05;100777.06;;;0.03;52.76
37792;BME280;29527;55.766;37.570;2023-11-18T06:03:34;100786.19;;;0.67;50.82
37792;BME280;29527;55.766;37.570;2023-11-18T06:06:08;100750.03;;;1.07;49.66
37792;BME280;29527;55.766;37.570;2023-11-18T06:08:39;100771.44;;;3.05;46.68
37792;BME280;29527;55.766;37.570;2023-11-18T06:11:12;100787.09;;;5.41;41.57
37792;BME280;29527;55.766;37.570;2023-11-18T06:13:47;100745.16;;;5.88;39.04
37792;BME280;29527;55.766;37.570;2023-11-18T06:18:44;100783.25;;;7.37;37.16
37792;BME280;29527;55.766;37.570;2023-11-18T06:21:13;100778.06;;;8.98;34.28
37792;BME280;29527;55.766;37.570;2023-11-18T06:23:41;100777.09;;;10.45;31.36
37792;BME280;29527;55.766;37.570;2023-11-18T06:26:07;100779.97;;;11.63;29.91
37792;BME280;29527;55.766;37.570;2023-11-18T06:28:42;100776.63;;;12.73;28.33
37792;BME280;29527;55.766;37.570;2023-11-18T06:31:09;100779.16;;;13.59;26.58
37792;BME280;29527;55.766;37.570;2023-11-18T06:33:44;100773.88;;;14.38;26.94
37792;BME280;29527;55.766;37.570;2023-11-18T06:36:17;100783.00;;;15.02;25.83
37792;BME280;29527;55.766;37.570;2023-11-18T06:38:43;100778.38;;;15.25;23.94
37792;BME280;29527;55.766;37.570;2023-11-18T06:41:10;100772.13;;;15.46;23.13
37792;BME280;29527;55.766;37.570;2023-11-18T06:43:38;100772.41;;;15.74;22.62
37792;BME280;29527;55.766;37.570;2023-11-18T06:46:24;100776.19;;;16.24;22.85
37792;BME280;29527;55.766;37.570;2023-11-18T06:48:54;100771.66;;;16.34;21.62
37792;BME280;29527;55.766;37.570;2023-11-18T06:51:23;100761.53;;;16.16;22.00
37792;BME280;29527;55.766;37.570;2023-11-18T06:53:53;100783.84;;;16.09;22.17
37792;BME280;29527;55.766;37.570;2023-11-18T06:56:21;100787.69;;;15.85;21.65
37792;BME280;29527;55.766;37.570;2023-11-18T06:58:46;100793.50;;;14.84;22.31
37792;BME280;29527;55.766;37.570;2023-11-18T07:01:13;100797.16;;;13.82;23.51
37792;BME280;29527;55.766;37.570;2023-11-18T07:03:41;100789.84;;;12.52;24.39
37792;BME280;29527;55.766;37.570;2023-11-18T07:06:07;100796.50;;;10.34;27.03
37792;BME280;29527;55.766;37.570;2023-11-18T07:08:37;100754.66;;;8.87;28.48
37792;BME280;29527;55.766;37.570;2023-11-18T07:11:04;100797.31;;;9.64;28.05
37792;BME280;29527;55.766;37.570;2023-11-18T07:13:32;100791.91;;;9.35;28.30
37792;BME280;29527;55.766;37.570;2023-11-18T07:16:02;100768.56;;;9.68;27.36
37792;BME280;29527;55.766;37.570;2023-11-18T07:18:29;100789.06;;;8.61;28.42
37792;BME280;29527;55.766;37.570;2023-11-18T07:21:01;100787.69;;;7.54;30.16
37792;BME280;29527;55.766;37.570;2023-11-18T07:23:28;100803.41;;;6.32;31.99
37792;BME280;29527;55.766;37.570;2023-11-18T07:25:54;100806.19;;;5.08;33.58
37792;BME280;29527;55.766;37.570;2023-11-18T07:28:21;100793.13;;;3.67;35.50
37792;BME280;29527;55.766;37.570;2023-11-18T07:30:47;100796.66;;;2.61;37.76
37792;BME280;29527;55.766;37.570;2023-11-18T07:33:17;100804.34;;;1.80;39.74
37792;BME280;29527;55.766;37.570;2023-11-18T07:35:44;100814.97;;;1.11;40.94
37792;BME280;29527;55.766;37.570;2023-11-18T07:38:12;100813.50;;;0.63;41.94
37792;BME280;29527;55.766;37.570;2023-11-18T07:40:38;100804.72;;;0.23;43.01
37792;BME280;29527;55.766;37.570;2023-11-18T07:43:08;100814.19;;;-0.09;43.12
37792;BME280;29527;55.766;37.570;2023-11-18T07:45:38;100810.44;;;-0.43;43.95
37792;BME280;29527;55.766;37.570;2023-11-18T07:48:10;100820.31;;;-0.56;44.49
37792;BME280;29527;55.766;37.570;2023-11-18T07:50:39;100814.50;;;-0.72;45.17
37792;BME280;29527;55.766;37.570;2023-11-18T07:53:09;100815.56;;;-0.82;45.20
37792;BME280;29527;55.766;37.570;2023-11-18T07:55:36;100809.72;;;-1.00;45.74
37792;BME280;29527;55.766;37.570;2023-11-18T07:58:05;100761.38;;;-1.45;45.73
37792;BME280;29527;55.766;37.570;2023-11-18T08:00:40;100770.25;;;-1.53;46.37
37792;BME280;29527;55.766;37.570;2023-11-18T08:03:07;100783.50;;;-1.61;47.09
37792;BME280;29527;55.766;37.570;2023-11-18T08:05:44;100820.00;;;-1.41;46.57
37792;BME280;29527;55.766;37.570;2023-11-18T08:08:11;100833.13;;;-1.41;46.45
37792;BME280;29527;55.766;37.570;2023-11-18T08:10:38;100829.81;;;-1.57;46.77
37792;BME280;29527;55.766;37.570;2023-11-18T08:13:07;100829.03;;;-1.61;46.82
37792;BME280;29527;55.766;37.570;2023-11-18T08:15:37;100827.44;;;-1.74;47.62
37792;BME280;29527;55.766;37.570;2023-11-18T08:18:03;100825.59;;;-1.67;47.56
37792;BME280;29527;55.766;37.570;2023-11-18T08:20:29;100830.91;;;-1.72;47.46
37792;BME280;29527;55.766;37.570;2023-11-18T08:22:56;100822.19;;;-1.74;47.59
37792;BME280;29527;55.766;37.570;2023-11-18T08:25:21;100822.19;;;-1.74;47.75
37792;BME280;29527;55.766;37.570;2023-11-18T08:27:48;100810.00;;;-1.78;47.93
37792;BME280;29527;55.766;37.570;2023-11-18T08:30:14;100830.00;;;-1.69;47.99
37792;BME280;29527;55.766;37.570;2023-11-18T08:32:41;100795.94;;;-1.74;47.67
37792;BME280;29527;55.766;37.570;2023-11-18T08:35:09;100820.91;;;-1.45;47.21
37792;BME280;29527;55.766;37.570;2023-11-18T08:37:39;100815.63;;;-1.43;46.99
37792;BME280;29527;55.766;37.570;2023-11-18T08:40:06;100822.72;;;-1.49;46.57
37792;BME280;29527;55.766;37.570;2023-11-18T08:42:44;100812.22;;;-1.49;46.89
37792;BME280;29527;55.766;37.570;2023-11-18T08:45:33;100797.25;;;-1.45;46.51
37792;BME280;29527;55.766;37.570;2023-11-18T08:48:01;100795.78;;;-1.62;47.19
37792;BME280;29527;55.766;37.570;2023-11-18T08:50:27;100802.91;;;-1.73;47.59
37792;BME280;29527;55.766;37.570;2023-11-18T08:52:55;100804.78;;;-1.81;47.66
37792;BME280;29527;55.766;37.570;2023-11-18T08:55:29;100803.91;;;-1.80;47.59
37792;BME280;29527;55.766;37.570;2023-11-18T08:58:07;100786.66;;;-2.00;48.29
37792;BME280;29527;55.766;37.570;2023-11-18T09:00:48;100812.84;;;-1.97;48.07
37792;BME280;29527;55.766;37.570;2023-11-18T09:03:22;100799.06;;;-2.11;48.42
37792;BME280;29527;55.766;37.570;2023-11-18T09:05:58;100813.91;;;-2.10;48.19
37792;BME280;29527;55.766;37.570;2023-11-18T09:08:47;100824.38;;;-2.09;47.92
37792;BME280;29527;55.766;37.570;2023-11-18T09:11:13;100793.53;;;-1.91;46.99
37792;BME280;29527;55.766;37.570;2023-11-18T09:13:43;100791.81;;;-1.91;45.83
37792;BME280;29527;55.766;37.570;2023-11-18T09:16:11;100806.00;;;-2.09;47.22
37792;BME280;29527;55.766;37.570;2023-11-18T09:18:41;100806.81;;;-2.02;46.39
37792;BME280;29527;55.766;37.570;2023-11-18T09:21:08;100792.94;;;-2.10;46.72
37792;BME280;29527;55.766;37.570;2023-11-18T09:23:40;100805.91;;;-1.99;46.98
37792;BME280;29527;55.766;37.570;2023-11-18T09:26:07;100805.97;;;-2.06;47.37
37792;BME280;29527;55.766;37.570;2023-11-18T09:28:34;100797.03;;;-1.89;46.20
37792;BME280;29527;55.766;37.570;2023-11-18T09:31:04;100806.84;;;-2.04;46.43
37792;BME280;29527;55.766;37.570;2023-11-18T09:33:32;100803.47;;;-2.13;46.95
37792;BME280;29527;55.766;37.570;2023-11-18T09:36:02;100814.84;;;-2.16;46.44
37792;BME280;29527;55.766;37.570;2023-11-18T09:38:30;100800.97;;;-2.24;46.88
37792;BME280;29527;55.766;37.570;2023-11-18T09:40:57;100807.78;;;-2.09;46.35
37792;BME280;29527;55.766;37.570;2023-11-18T09:43:30;100767.03;;;-2.38;46.26
37792;BME280;29527;55.766;37.570;2023-11-18T09:46:06;100811.25;;;-2.09;46.74
37792;BME280;29527;55.766;37.570;2023-11-18T09:48:44;100776.53;;;-2.28;46.69
37792;BME280;29527;55.766;37.570;2023-11-18T09:51:19;100802.44;;;-2.02;46.64
37792;BME280;29527;55.766;37.570;2023-11-18T09:53:49;100798.97;;;-2.05;46.69
37792;BME280;29527;55.766;37.570;2023-11-18T09:56:31;100785.84;;;-2.04;47.08
37792;BME280;29527;55.766;37.570;2023-11-18T09:59:12;100794.56;;;-2.02;47.04
37792;BME280;29527;55.766;37.570;2023-11-18T10:01:43;100800.63;;;-1.98;47.02
37792;BME280;29527;55.766;37.570;2023-11-18T10:04:11;100750.28;;;-2.28;47.19
37792;BME280;29527;55.766;37.570;2023-11-18T10:06:37;100799.81;;;-2.03;46.75
37792;BME280;29527;55.766;37.570;2023-11-18T10:09:06;100794.66;;;-2.09;46.86
37792;BME280;29527;55.766;37.570;2023-11-18T10:11:47;100798.19;;;-2.12;47.79
37792;BME280;29527;55.766;37.570;2023-11-18T10:14:16;100803.56;;;-2.21;47.77
37792;BME280;29527;55.766;37.570;2023-11-18T10:16:46;100753.25;;;-2.57;47.19
37792;BME280;29527;55.766;37.570;2023-11-18T10:19:12;100796.75;;;-2.36;48.38
37792;BME280;29527;55.766;37.570;2023-11-18T10:21:39;100782.78;;;-2.41;48.42
37792;BME280;29527;55.766;37.570;2023-11-18T10:24:08;100784.56;;;-2.43;48.50
37792;BME280;29527;55.766;37.570;2023-11-18T10:26:42;100787.22;;;-2.47;48.46
37792;BME280;29527;55.766;37.570;2023-11-18T10:29:09;100791.63;;;-2.49;48.48
37792;BME280;29527;55.766;37.570;2023-11-18T10:31:35;100775.09;;;-2.57;48.42
37792;BME280;29527;55.766;37.570;2023-11-18T10:34:03;100785.56;;;-2.54;48.76
37792;BME280;29527;55.766;37.570;2023-11-18T10:36:29;100784.75;;;-2.59;48.99
37792;BME280;29527;55.766;37.570;2023-11-18T10:38:58;100776.94;;;-2.65;49.08
37792;BME280;29527;55.766;37.570;2023-11-18T10:41:26;100781.31;;;-2.64;49.24
37792;BME280;29527;55.766;37.570;2023-11-18T10:44:05;100774.34;;;-2.65;49.43
37792;BME280;29527;55.766;37.570;2023-11-18T10:46:32;100743.03;;;-2.81;49.11
37792;BME280;29527;55.766;37.570;2023-11-18T10:48:58;100783.75;;;-2.49;49.12
37792;BME280;29527;55.766;37.570;2023-11-18T10:51:24;100756.78;;;-2.60;48.33
37792;BME280;29527;55.766;37.570;2023-11-18T10:53:52;100789.72;;;-2.34;48.60
37792;BME280;29527;55.766;37.570;2023-11-18T10:56:20;100737.50;;;-2.56;48.38
37792;BME280;29527;55.766;37.570;2023-11-18T10:58:53;100775.66;;;-2.30;48.29
37792;BME280;29527;55.766;37.570;2023-11-18T11:01:33;100788.56;;;-2.11;48.34
37792;BME280;29527;55.766;37.570;2023-11-18T11:04:00;100783.38;;;-2.18;48.21
37792;BME280;29527;55.766;37.570;2023-11-18T11:06:31;100781.69;;;-2.20;48.26
37792;BME280;29527;55.766;37.570;2023-11-18T11:08:58;100785.16;;;-2.18;47.64
37792;BME280;29527;55.766;37.570;2023-11-18T11:11:25;100783.31;;;-2.11;48.01
37792;BME280;29527;55.766;37.570;2023-11-18T11:13:56;100771.84;;;-2.04;47.51
37792;BME280;29527;55.766;37.570;2023-11-18T11:16:28;100733.78;;;-2.38;47.88
37792;BME280;29527;55.766;37.570;2023-11-18T11:18:56;100757.13;;;-2.18;47.89
37792;BME280;29527;55.766;37.570;2023-11-18T11:21:26;100778.84;;;-2.03;47.46
37792;BME280;29527;55.766;37.570;2023-11-18T11:29:32;100778.59;;;-1.84;46.96
37792;BME280;29527;55.766;37.570;2023-11-18T11:35:01;100776.91;;;-1.89;46.77
37792;BME280;29527;55.766;37.570;2023-11-18T11:37:33;100782.22;;;-1.95;46.60
37792;BME280;29527;55.766;37.570;2023-11-18T11:40:04;100773.63;;;-2.05;46.68
37792;BME280;29527;55.766;37.570;2023-11-18T11:42:35;100772.69;;;-2.02;46.65
37792;BME280;29527;55.766;37.570;2023-11-18T11:45:01;100774.47;;;-2.04;46.61
37792;BME280;29527;55.766;37.570;2023-11-18T11:47:31;100725.84;;;-2.32;46.76
37792;BME280;29527;55.766;37.570;2023-11-18T11:50:14;100777.91;;;-1.99;47.53
37792;BME280;29527;55.766;37.570;2023-11-18T11:52:53;100770.06;;;-2.02;46.41
37792;BME280;29527;55.766;37.570;2023-11-18T11:55:28;100776.25;;;-2.08;45.91
37792;BME280;29527;55.766;37.570;2023-11-18T11:57:55;100771.94;;;-2.12;46.30
37792;BME280;29527;55.766;37.570;2023-11-18T12:00:24;100781.63;;;-2.17;45.64
37792;BME280;29527;55.766;37.570;2023-11-18T12:02:52;100773.84;;;-2.25;45.47
37792;BME280;29527;55.766;37.570;2023-11-18T12:05:24;100743.44;;;-2.41;46.17
37792;BME280;29527;55.766;37.570;2023-11-18T12:07:53;100768.78;;;-2.37;46.70
37792;BME280;29527;55.766;37.570;2023-11-18T12:10:31;100777.47;;;-2.35;46.63
37792;BME280;29527;55.766;37.570;2023-11-18T12:13:10;100779.22;;;-2.34;46.71
37792;BME280;29527;55.766;37.570;2023-11-18T12:15:54;100777.53;;;-2.41;47.02
37792;BME280;29527;55.766;37.570;2023-11-18T12:18:25;100775.00;;;-2.48;46.73
37792;BME280;29527;55.766;37.570;2023-11-18T12:20:51;100765.47;;;-2.56;46.52
37792;BME280;29527;55.766;37.570;2023-11-18T12:23:21;100777.72;;;-2.57;46.75
37792;BME280;29527;55.766;37.570;2023-11-18T12:25:51;100788.22;;;-2.58;47.39
37792;BME280;29527;55.766;37.570;2023-11-18T12:28:28;100776.00;;;-2.58;47.23
37792;BME280;29527;55.766;37.570;2023-11-18T12:30:57;100788.28;;;-2.66;47.16
37792;BME280;29527;55.766;37.570;2023-11-18T12:33:25;100783.13;;;-2.72;47.44
37792;BME280;29527;55.766;37.570;2023-11-18T12:36:35;100782.19;;;-2.65;47.79
37792;BME280;29527;55.766;37.570;2023-11-18T12:42:07;100779.66;;;-2.73;48.04
37792;BME280;29527;55.766;37.570;2023-11-18T12:44:52;100783.19;;;-2.79;48.23
37792;BME280;29527;55.766;37.570;2023-11-18T12:47:33;100776.31;;;-2.89;47.92
37792;BME280;29527;55.766;37.570;2023-11-18T12:50:08;100789.34;;;-2.83;48.22
37792;BME280;29527;55.766;37.570;2023-11-18T12:52:43;100778.13;;;-2.96;48.57
37792;BME280;29527;55.766;37.570;2023-11-18T12:55:12;100794.72;;;-2.97;48.22
37792;BME280;29527;55.766;37.570;2023-11-18T12:57:47;100737.34;;;-3.26;48.66
37792;BME280;29527;55.766;37.570;2023-11-18T13:00:16;100797.41;;;-3.05;48.91
37792;BME280;29527;55.766;37.570;2023-11-18T13:02:54;100785.22;;;-3.09;48.81
37792;BME280;29527;55.766;37.570;2023-11-18T13:05:20;100785.28;;;-3.17;48.86